createdAt,value
2023-05-14T00:00:04.546Z,5.22
2023-05-14T00:03:09.879Z,5.20
2023-05-14T00:06:13.221Z,5.30
2023-05-14T00:09:16.697Z,4.93
2023-05-14T00:12:20.022Z,4.78
2023-05-14T00:15:23.229Z,5.22
2023-05-14T00:18:26.716Z,4.53
2023-05-14T00:21:30.043Z,5.07
2023-05-14T00:24:33.233Z,5.05
2023-05-14T00:27:37.933Z,5.18
2023-05-14T00:30:41.299Z,4.65
2023-05-14T00:33:45.543Z,4.97
2023-05-14T00:36:48.847Z,5.10
2023-05-14T00:39:52.303Z,5.37
2023-05-14T00:42:56.415Z,4.78
2023-05-14T00:46:00.412Z,5.40
2023-05-14T00:49:03.792Z,5.03
2023-05-14T00:52:07.510Z,4.90
2023-05-14T00:55:16.357Z,5.65
2023-05-14T00:58:21.401Z,5.20
2023-05-14T01:01:24.807Z,5.45
2023-05-14T01:04:28.400Z,5.72
2023-05-14T01:07:53.450Z,5.50
2023-05-14T01:11:33.863Z,5.90
2023-05-14T01:15:06.697Z,5.32
2023-05-14T01:18:12.734Z,5.53
2023-05-14T01:21:35.359Z,5.72
2023-05-14T01:24:38.882Z,5.30
2023-05-14T01:27:46.061Z,6.30
2023-05-14T01:31:05.940Z,5.57
2023-05-14T01:34:11.757Z,5.50
2023-05-14T01:37:15.593Z,5.38
2023-05-14T01:40:19.303Z,5.63
2023-05-14T01:43:24.060Z,5.95
2023-05-14T01:46:31.024Z,5.57
2023-05-14T01:49:34.357Z,5.47
2023-05-14T01:52:38.296Z,5.55
2023-05-14T01:55:41.504Z,5.30
2023-05-14T01:58:44.833Z,4.70
2023-05-14T02:01:48.086Z,5.28
2023-05-14T02:04:51.780Z,4.85
2023-05-14T02:07:55.043Z,5.28
2023-05-14T02:10:58.511Z,5.30
2023-05-14T02:14:02.574Z,5.28
2023-05-14T02:17:06.000Z,5.30
2023-05-14T02:20:10.374Z,5.32
2023-05-14T02:23:13.697Z,5.10
2023-05-14T02:26:16.962Z,4.80
2023-05-14T02:29:20.501Z,4.72
2023-05-14T02:32:23.754Z,5.05
2023-05-14T02:35:27.091Z,5.10
2023-05-14T02:38:30.343Z,4.90
2023-05-14T02:41:33.657Z,4.93
2023-05-14T02:44:37.110Z,4.63
2023-05-14T02:47:40.716Z,4.80
2023-05-14T02:50:44.098Z,4.90
2023-05-14T02:53:47.448Z,4.63
2023-05-14T02:56:50.760Z,4.67
2023-05-14T02:59:54.029Z,4.40
2023-05-14T03:02:57.690Z,4.30
2023-05-14T03:06:01.223Z,4.97
2023-05-14T03:09:04.564Z,3.88
2023-05-14T03:12:08.839Z,4.37
2023-05-14T03:15:12.355Z,4.45
2023-05-14T03:18:15.769Z,4.28
2023-05-14T03:21:19.115Z,4.40
2023-05-14T03:24:22.271Z,3.97
2023-05-14T03:27:25.505Z,4.00
2023-05-14T03:30:28.926Z,4.00
2023-05-14T03:33:32.301Z,3.60
2023-05-14T03:36:36.496Z,3.60
2023-05-14T03:39:39.789Z,3.70
2023-05-14T03:42:42.994Z,3.07
2023-05-14T03:45:47.073Z,3.20
2023-05-14T03:48:53.029Z,2.92
2023-05-14T03:51:57.457Z,3.10
2023-05-14T03:55:00.746Z,2.90
2023-05-14T03:58:07.440Z,2.33
2023-05-14T04:01:10.905Z,2.83
2023-05-14T04:04:14.260Z,2.42
2023-05-14T04:07:17.455Z,2.60
2023-05-14T04:10:20.614Z,2.50
2023-05-14T04:13:23.842Z,2.77
2023-05-14T04:16:27.167Z,2.70
2023-05-14T04:19:30.451Z,2.90
2023-05-14T04:22:33.736Z,2.95
2023-05-14T04:25:36.896Z,2.70
2023-05-14T04:28:40.572Z,2.73
2023-05-14T04:31:44.258Z,2.90
2023-05-14T04:34:47.475Z,3.10
2023-05-14T04:37:50.645Z,3.40
2023-05-14T04:40:53.870Z,2.72
2023-05-14T04:43:59.095Z,2.80
2023-05-14T04:47:02.831Z,2.80
2023-05-14T04:50:06.648Z,2.58
2023-05-14T04:53:10.532Z,2.80
2023-05-14T04:56:13.950Z,2.40
2023-05-14T04:59:17.208Z,2.23
2023-05-14T05:02:20.476Z,2.40
2023-05-14T05:05:23.986Z,2.38
2023-05-14T05:08:31.736Z,2.60
2023-05-14T05:11:35.043Z,2.58
2023-05-14T05:14:38.267Z,2.70
2023-05-14T05:17:41.545Z,2.50
2023-05-14T05:20:44.856Z,2.65
2023-05-14T05:23:48.065Z,2.90
2023-05-14T05:26:51.963Z,3.00
2023-05-14T05:29:55.208Z,3.20
2023-05-14T05:32:58.534Z,3.07
2023-05-14T05:36:01.953Z,2.88
2023-05-14T05:39:05.205Z,3.20
2023-05-14T05:42:08.848Z,3.35
2023-05-14T05:45:12.154Z,3.43
2023-05-14T05:48:15.491Z,3.70
2023-05-14T05:51:18.696Z,3.53
2023-05-14T05:54:23.215Z,3.25
2023-05-14T05:57:27.319Z,3.78
2023-05-14T06:00:31.260Z,3.30
2023-05-14T06:03:34.511Z,3.50
2023-05-14T06:06:37.756Z,3.83
2023-05-14T06:09:41.029Z,3.85
2023-05-14T06:12:44.237Z,3.65
2023-05-14T06:15:47.477Z,3.73
2023-05-14T06:18:52.468Z,3.80
2023-05-14T06:21:56.028Z,4.15
2023-05-14T06:24:59.161Z,4.85
2023-05-14T06:28:02.402Z,4.85
2023-05-14T06:31:05.642Z,4.67
2023-05-14T06:34:09.300Z,4.27
2023-05-14T06:37:12.847Z,4.38
2023-05-14T06:40:16.376Z,4.80
2023-05-14T06:43:19.647Z,3.70
2023-05-14T06:46:22.914Z,4.30
2023-05-14T06:49:26.244Z,3.60
2023-05-14T06:52:29.401Z,3.38
2023-05-14T06:55:32.660Z,3.40
2023-05-14T06:58:35.870Z,3.65
2023-05-14T07:01:39.182Z,3.60
2023-05-14T07:04:42.422Z,3.53
2023-05-14T07:07:45.778Z,3.45
2023-05-14T07:10:49.151Z,3.72
2023-05-14T07:13:52.383Z,3.38
2023-05-14T07:16:55.574Z,3.33
2023-05-14T07:19:58.834Z,3.70
2023-05-14T07:23:02.140Z,3.15
2023-05-14T07:26:08.784Z,3.40
2023-05-14T07:29:11.977Z,3.47
2023-05-14T07:32:15.764Z,3.30
2023-05-14T07:35:19.145Z,3.35
2023-05-14T07:38:22.520Z,2.78
2023-05-14T07:41:25.650Z,2.95
2023-05-14T07:44:28.829Z,2.90
2023-05-14T07:47:32.260Z,3.17
2023-05-14T07:50:35.714Z,3.25
2023-05-14T07:53:38.935Z,2.88
2023-05-14T07:56:42.164Z,3.33
2023-05-14T07:59:45.404Z,3.53
2023-05-14T08:02:49.408Z,3.70
2023-05-14T08:05:52.899Z,3.90
2023-05-14T08:08:56.136Z,3.83
2023-05-14T08:11:59.329Z,4.50
2023-05-14T08:15:03.257Z,4.15
2023-05-14T08:18:06.563Z,4.17
2023-05-14T08:21:09.762Z,4.40
2023-05-14T08:24:13.029Z,4.28
2023-05-14T08:27:16.739Z,4.40
2023-05-14T08:30:20.266Z,3.95
2023-05-14T08:33:23.494Z,4.40
2023-05-14T08:36:26.926Z,4.53
2023-05-14T08:39:30.354Z,4.35
2023-05-14T08:42:34.413Z,4.63
2023-05-14T08:45:39.637Z,4.85
2023-05-14T08:48:46.299Z,4.63
2023-05-14T08:51:49.702Z,4.70
2023-05-14T08:54:54.119Z,5.18
2023-05-14T08:57:57.403Z,4.75
2023-05-14T09:01:00.696Z,4.70
2023-05-14T09:04:08.515Z,4.13
2023-05-14T09:07:12.020Z,4.60
2023-05-14T09:10:17.260Z,4.85
2023-05-14T09:13:20.429Z,4.15
2023-05-14T09:16:26.092Z,3.88
2023-05-14T09:19:29.561Z,4.20
2023-05-14T09:22:33.006Z,4.85
2023-05-14T09:25:36.368Z,4.90
2023-05-14T09:28:43.560Z,4.72
2023-05-14T09:31:49.891Z,5.07
2023-05-14T09:34:53.263Z,5.00
2023-05-14T09:37:56.615Z,5.53
2023-05-14T09:41:02.789Z,5.80
2023-05-14T09:44:06.739Z,6.00
2023-05-14T09:47:10.160Z,6.68
2023-05-14T09:50:13.543Z,7.23
2023-05-14T09:53:17.917Z,8.07
2023-05-14T09:56:21.741Z,7.47
2023-05-14T09:59:24.927Z,7.60
2023-05-14T10:02:37.560Z,7.88
2023-05-14T10:05:42.457Z,7.67
2023-05-14T10:08:51.028Z,7.90
2023-05-14T10:11:56.344Z,7.40
2023-05-14T10:15:06.930Z,8.52
2023-05-14T10:18:16.827Z,9.73
2023-05-14T10:21:22.423Z,9.80
2023-05-14T10:24:26.007Z,9.38
2023-05-14T10:27:29.428Z,7.70
2023-05-14T10:30:33.207Z,8.60
2023-05-14T10:33:58.559Z,8.75
2023-05-14T10:37:07.888Z,8.20
2023-05-14T10:40:12.207Z,9.15
2023-05-14T10:43:17.647Z,8.38
2023-05-14T10:46:21.094Z,7.88
2023-05-14T10:49:39.875Z,6.50
2023-05-14T10:52:46.729Z,7.70
2023-05-14T10:55:54.624Z,6.95
2023-05-14T10:58:59.954Z,7.80
2023-05-14T11:02:06.366Z,6.72
2023-05-14T11:05:16.055Z,7.10
2023-05-14T11:08:20.113Z,6.00
2023-05-14T11:11:26.150Z,5.38
2023-05-14T11:14:29.357Z,5.78
2023-05-14T11:17:33.157Z,6.43
2023-05-14T11:20:37.618Z,4.80
2023-05-14T11:23:40.768Z,4.83
2023-05-14T11:26:44.000Z,4.27
2023-05-14T11:29:48.122Z,4.60
2023-05-14T11:32:51.649Z,4.32
2023-05-14T11:35:55.181Z,3.95
2023-05-14T11:38:58.413Z,3.60
2023-05-14T11:42:04.694Z,3.83
2023-05-14T11:45:11.953Z,3.80
2023-05-14T11:48:15.233Z,3.63
2023-05-14T11:51:18.568Z,3.20
2023-05-14T11:54:21.775Z,3.20
2023-05-14T11:57:25.199Z,3.10
2023-05-14T12:00:28.555Z,2.90
2023-05-14T12:03:32.177Z,3.60
2023-05-14T12:06:35.391Z,3.13
2023-05-14T12:09:49.063Z,3.13
2023-05-14T12:12:52.247Z,3.03
2023-05-14T12:15:58.267Z,3.28
2023-05-14T12:19:01.919Z,3.20
2023-05-14T12:22:05.293Z,3.20
2023-05-14T12:25:15.694Z,3.60
2023-05-14T12:28:19.834Z,3.07
2023-05-14T12:31:29.831Z,3.10
2023-05-14T12:34:33.921Z,3.00
2023-05-14T12:37:40.072Z,3.00
2023-05-14T12:40:43.337Z,2.97
2023-05-14T12:43:49.674Z,2.70
2023-05-14T12:46:53.339Z,2.83
2023-05-14T12:49:56.593Z,2.67
2023-05-14T12:52:59.804Z,2.70
2023-05-14T12:56:03.078Z,3.00
2023-05-14T12:59:06.426Z,2.50
2023-05-14T13:02:09.741Z,2.78
2023-05-14T13:05:13.281Z,2.60
2023-05-14T13:08:17.940Z,2.85
2023-05-14T13:11:21.790Z,2.63
2023-05-14T13:14:25.047Z,2.60
2023-05-14T13:17:28.288Z,3.20
2023-05-14T13:20:31.660Z,2.67
2023-05-14T13:23:34.908Z,2.75
2023-05-14T13:26:38.494Z,2.90
2023-05-14T13:29:41.666Z,2.70
2023-05-14T13:32:45.416Z,2.67
2023-05-14T13:35:48.714Z,2.63
2023-05-14T13:38:51.912Z,2.70
2023-05-14T13:41:56.942Z,2.90
2023-05-14T13:45:00.689Z,2.57
2023-05-14T13:48:04.062Z,2.65
2023-05-14T13:51:07.415Z,3.03
2023-05-14T13:54:10.885Z,2.60
2023-05-14T13:57:14.570Z,2.67
2023-05-14T14:00:18.191Z,2.80
2023-05-14T14:03:21.533Z,2.33
2023-05-14T14:06:27.556Z,2.97
2023-05-14T14:09:35.094Z,2.60
2023-05-14T14:12:38.384Z,2.67
2023-05-14T14:15:41.709Z,2.77
2023-05-14T14:18:45.482Z,2.90
2023-05-14T14:24:56.999Z,2.80
2023-05-14T14:28:01.100Z,3.00
2023-05-14T14:31:04.691Z,2.90
2023-05-14T14:34:08.005Z,2.70
2023-05-14T14:37:11.179Z,2.42
2023-05-14T14:40:14.820Z,2.97
2023-05-14T14:43:18.005Z,2.80
2023-05-14T14:46:21.334Z,2.43
2023-05-14T14:49:26.312Z,2.70
2023-05-14T14:52:29.724Z,3.08
2023-05-14T14:55:35.934Z,2.58
2023-05-14T14:58:39.187Z,2.90
2023-05-14T15:01:42.472Z,3.03
2023-05-14T15:04:45.708Z,2.97
2023-05-14T15:07:49.042Z,2.70
2023-05-14T15:10:52.356Z,2.78
2023-05-14T15:13:55.764Z,2.63
2023-05-14T15:16:59.007Z,2.77
2023-05-14T15:20:02.345Z,2.22
2023-05-14T15:23:06.170Z,2.65
2023-05-14T15:26:09.324Z,2.78
2023-05-14T15:29:12.592Z,2.53
2023-05-14T15:32:16.661Z,2.20
2023-05-14T15:35:20.010Z,2.72
2023-05-14T15:38:23.295Z,2.53
2023-05-14T15:41:28.732Z,2.58
2023-05-14T15:44:32.139Z,2.70
2023-05-14T15:47:36.176Z,2.50
2023-05-14T15:50:39.424Z,2.60
2023-05-14T15:53:42.601Z,2.38
2023-05-14T15:56:46.619Z,2.40
2023-05-14T15:59:49.904Z,2.77
2023-05-14T16:02:53.264Z,3.00
2023-05-14T16:05:56.843Z,3.00
2023-05-14T16:09:01.477Z,3.05
2023-05-14T16:12:05.967Z,2.80
2023-05-14T16:15:09.606Z,2.60
2023-05-14T16:18:12.833Z,2.67
2023-05-14T16:21:16.158Z,2.53
2023-05-14T16:24:19.696Z,2.45
2023-05-14T16:27:22.979Z,2.55
2023-05-14T16:30:26.265Z,2.60
2023-05-14T16:33:29.809Z,2.83
2023-05-14T16:36:33.552Z,2.50
2023-05-14T16:39:36.735Z,3.38
2023-05-14T16:42:41.595Z,3.10
2023-05-14T16:45:44.994Z,2.80
2023-05-14T16:48:50.582Z,2.90
2023-05-14T16:51:53.845Z,2.60
2023-05-14T16:54:57.125Z,2.88
2023-05-14T16:58:00.364Z,2.78
2023-05-14T17:01:03.636Z,3.03
2023-05-14T17:04:07.013Z,2.60
2023-05-14T17:07:10.690Z,3.33
2023-05-14T17:10:13.866Z,3.03
2023-05-14T17:13:17.200Z,2.97
2023-05-14T17:16:22.165Z,3.27
2023-05-14T17:19:25.541Z,3.30
2023-05-14T17:22:28.725Z,3.35
2023-05-14T17:25:33.569Z,3.50
2023-05-14T17:28:36.769Z,3.83
2023-05-14T17:31:40.119Z,3.13
2023-05-14T17:34:43.515Z,3.10
2023-05-14T17:37:46.922Z,3.25
2023-05-14T17:40:50.176Z,3.28
2023-05-14T17:43:53.524Z,3.35
2023-05-14T17:46:56.986Z,2.87
2023-05-14T17:50:00.097Z,3.23
2023-05-14T17:53:03.578Z,3.70
2023-05-14T17:56:06.871Z,3.35
2023-05-14T17:59:10.290Z,3.60
2023-05-14T18:02:13.449Z,3.07
2023-05-14T18:05:18.640Z,3.30
2023-05-14T18:08:23.892Z,3.00
2023-05-14T18:11:32.799Z,3.10
2023-05-14T18:14:36.411Z,3.55
2023-05-14T18:17:39.700Z,3.60
2023-05-14T18:20:42.912Z,2.90
2023-05-14T18:23:46.151Z,2.92
2023-05-14T18:26:49.814Z,2.80
2023-05-14T18:29:53.380Z,3.03
2023-05-14T18:32:57.112Z,3.20
2023-05-14T18:36:00.607Z,3.10
2023-05-14T18:39:03.891Z,2.75
2023-05-14T18:42:07.618Z,2.70
2023-05-14T18:45:11.486Z,3.00
2023-05-14T18:48:15.434Z,3.03
2023-05-14T18:51:18.620Z,2.67
2023-05-14T18:54:22.066Z,2.65
2023-05-14T18:57:32.825Z,2.80
2023-05-14T19:00:36.050Z,2.60
2023-05-14T19:03:41.676Z,2.50
2023-05-14T19:06:44.997Z,2.93
2023-05-14T19:09:48.379Z,2.70
2023-05-14T19:12:51.851Z,2.92
2023-05-14T19:15:55.286Z,2.83
2023-05-14T19:18:58.667Z,2.63
2023-05-14T19:22:01.891Z,2.73
2023-05-14T19:25:06.902Z,2.40
2023-05-14T19:28:11.368Z,2.70
2023-05-14T19:31:15.762Z,3.00
2023-05-14T19:34:18.995Z,3.07
2023-05-14T19:37:22.518Z,2.80
2023-05-14T19:40:25.907Z,2.65
2023-05-14T19:43:29.396Z,3.00
2023-05-14T19:46:32.875Z,2.58
2023-05-14T19:49:36.074Z,2.43
2023-05-14T19:52:39.307Z,2.47
2023-05-14T19:55:42.869Z,2.63
2023-05-14T19:58:46.221Z,2.70
2023-05-14T20:01:49.657Z,2.42
2023-05-14T20:04:55.448Z,2.70
2023-05-14T20:07:58.794Z,2.50
2023-05-14T20:11:02.160Z,3.10
2023-05-14T20:14:07.888Z,2.50
2023-05-14T20:17:11.140Z,2.88
2023-05-14T20:20:14.454Z,2.40
2023-05-14T20:23:17.783Z,2.37
2023-05-14T20:26:21.421Z,2.63
2023-05-14T20:29:24.685Z,2.47
2023-05-14T20:32:28.021Z,1.88
2023-05-14T20:35:31.595Z,2.80
2023-05-14T20:38:35.127Z,2.37
2023-05-14T20:41:38.823Z,2.55
2023-05-14T20:44:42.068Z,2.67
2023-05-14T20:47:45.442Z,2.63
2023-05-14T20:50:51.197Z,2.37
2023-05-14T20:53:54.337Z,2.60
2023-05-14T20:57:00.277Z,1.88
2023-05-14T21:00:08.120Z,2.58
2023-05-14T21:03:11.644Z,2.60
2023-05-14T21:06:15.155Z,2.60
2023-05-14T21:09:18.387Z,2.53
2023-05-14T21:12:21.596Z,2.67
2023-05-14T21:15:25.244Z,1.95
2023-05-14T21:18:30.844Z,2.03
2023-05-14T21:21:34.189Z,2.43
2023-05-14T21:24:37.370Z,2.67
2023-05-14T21:27:40.600Z,2.65
2023-05-14T21:30:43.754Z,2.80
2023-05-14T21:33:47.056Z,1.33
2023-05-14T21:36:50.287Z,1.90
2023-05-14T21:39:53.450Z,2.70
2023-05-14T21:42:56.603Z,2.08
2023-05-14T21:45:59.756Z,1.27
2023-05-14T21:49:03.221Z,1.80
2023-05-14T21:52:06.772Z,1.90
2023-05-14T21:55:10.313Z,2.33
2023-05-14T21:58:13.646Z,2.72
2023-05-14T22:01:16.964Z,1.70
2023-05-14T22:04:20.322Z,2.42
2023-05-14T22:07:23.579Z,2.77
2023-05-14T22:10:26.862Z,3.80
2023-05-14T22:13:30.059Z,2.88
2023-05-14T22:16:33.798Z,3.28
2023-05-14T22:19:36.975Z,1.85
2023-05-14T22:22:40.172Z,1.37
2023-05-14T22:25:43.834Z,1.30
2023-05-14T22:28:48.707Z,1.73
2023-05-14T22:31:52.003Z,1.30
2023-05-14T22:34:55.808Z,1.40
2023-05-14T22:37:59.104Z,1.97
2023-05-14T22:41:02.498Z,2.30
2023-05-14T22:44:05.735Z,1.92
2023-05-14T22:47:09.032Z,1.60
2023-05-14T22:50:12.273Z,1.60
2023-05-14T22:53:15.487Z,1.97
2023-05-14T22:56:20.403Z,1.50
2023-05-14T22:59:24.012Z,1.80
2023-05-14T23:02:27.411Z,2.00
2023-05-14T23:05:30.790Z,1.50
2023-05-14T23:08:34.033Z,1.80
2023-05-14T23:11:37.226Z,2.13
2023-05-14T23:14:40.454Z,1.52
2023-05-14T23:17:43.878Z,1.42
2023-05-14T23:20:47.249Z,2.05
2023-05-14T23:23:50.514Z,2.10
2023-05-14T23:26:53.724Z,2.43
2023-05-14T23:29:56.924Z,1.77
2023-05-14T23:33:00.218Z,2.50
2023-05-14T23:36:04.390Z,2.55
2023-05-14T23:39:07.775Z,2.73
2023-05-14T23:42:11.007Z,2.00
2023-05-14T23:45:14.322Z,1.80
2023-05-14T23:48:18.127Z,2.50
2023-05-14T23:51:21.295Z,2.63
2023-05-14T23:54:24.385Z,2.30
2023-05-14T23:57:27.493Z,1.93
